Time;durP1;ratioP1;P1;durP2;ratioP2;P2;SDS_P1;SDS_P2;PMS_P1;PMS_P2;Temp;Humidity;BMP_temperature;BMP_pressure;BME280_temperature;BME280_humidity;BME280_pressure;Samples;Min_cycle;Max_cycle;Signal;HPM_P1;HPM_P2
2023/01/03 00:00:41;;;;;;;16.13;4.45;;;5.80;99.90;;;;;;5032684;28;20211;-78
2023/01/03 00:03:07;;;;;;;9.63;4.30;;;5.80;99.90;;;;;;5033253;28;20183;-78
2023/01/03 00:05:34;;;;;;;9.32;3.85;;;5.80;99.90;;;;;;5030773;28;20212;-83
2023/01/03 00:08:00;;;;;;;11.15;4.10;;;5.80;99.90;;;;;;5028453;28;20259;-78
2023/01/03 00:10:28;;;;;;;12.85;4.32;;;5.70;99.90;;;;;;5026905;28;20257;-78
2023/01/03 00:12:56;;;;;;;9.90;3.67;;;5.70;99.90;;;;;;5032656;28;20172;-77
2023/01/03 00:15:21;;;;;;;11.95;4.05;;;5.70;99.90;;;;;;5030625;28;20188;-77
2023/01/03 00:17:49;;;;;;;11.95;3.50;;;5.70;99.90;;;;;;5064601;28;20239;-77
2023/01/03 00:20:15;;;;;;;8.13;3.22;;;5.70;99.90;;;;;;5040303;28;20214;-77
2023/01/03 00:22:41;;;;;;;14.30;3.28;;;5.70;99.90;;;;;;5062901;28;20192;-78
2023/01/03 00:25:07;;;;;;;13.95;3.22;;;5.70;99.90;;;;;;5030765;28;20225;-78
2023/01/03 00:27:33;;;;;;;9.98;3.17;;;5.70;99.90;;;;;;5047645;28;20176;-79
2023/01/03 00:29:59;;;;;;;12.23;3.10;;;5.70;99.90;;;;;;5030593;28;20303;-78
2023/01/03 00:32:25;;;;;;;9.63;2.80;;;5.70;99.90;;;;;;5048238;28;20184;-78
2023/01/03 00:34:51;;;;;;;7.85;2.90;;;5.70;99.90;;;;;;5043643;28;20176;-77
2023/01/03 00:37:16;;;;;;;8.68;3.10;;;5.70;99.90;;;;;;5027228;28;20203;-78
2023/01/03 00:39:43;;;;;;;9.05;3.00;;;5.70;99.90;;;;;;5063715;28;20636;-78
2023/01/03 00:42:08;;;;;;;9.77;2.95;;;5.70;99.90;;;;;;5025028;28;20628;-77
2023/01/03 00:44:34;;;;;;;7.47;2.92;;;5.70;99.90;;;;;;5023650;28;20195;-77
2023/01/03 00:47:01;;;;;;;7.88;2.72;;;5.80;99.90;;;;;;5015344;28;20181;-77
2023/01/03 00:49:26;;;;;;;8.68;2.90;;;5.80;99.90;;;;;;5061968;28;20207;-78
2023/01/03 00:51:52;;;;;;;9.55;2.90;;;5.80;99.90;;;;;;5046250;28;20640;-77
2023/01/03 00:54:19;;;;;;;5.85;2.85;;;5.80;99.90;;;;;;5046303;28;20203;-79
2023/01/03 00:56:46;;;;;;;10.68;2.92;;;5.80;99.90;;;;;;5059772;28;20557;-77
2023/01/03 00:59:14;;;;;;;8.88;2.88;;;5.80;99.90;;;;;;5024761;28;20212;-77
2023/01/03 01:01:45;;;;;;;8.57;2.97;;;5.80;99.90;;;;;;5063498;28;20275;-78
2023/01/03 01:04:15;;;;;;;9.93;3.00;;;5.80;99.90;;;;;;5034171;28;20182;-77
2023/01/03 01:06:44;;;;;;;7.50;2.78;;;5.80;99.90;;;;;;5037090;28;20675;-77
2023/01/03 01:09:15;;;;;;;12.05;2.90;;;5.80;99.90;;;;;;5031524;28;20644;-78
2023/01/03 01:11:40;;;;;;;6.50;2.42;;;5.80;99.90;;;;;;5029067;28;20648;-78
2023/01/03 01:14:18;;;;;;;11.90;2.95;;;5.80;99.90;;;;;;5043209;28;20181;-80
2023/01/03 01:16:49;;;;;;;10.05;2.80;;;5.80;99.90;;;;;;5027058;28;20204;-78
2023/01/03 01:19:16;;;;;;;7.35;2.45;;;5.90;99.90;;;;;;5026869;28;20266;-79
2023/01/03 01:21:43;;;;;;;7.90;2.70;;;5.90;99.90;;;;;;5032955;28;20718;-78
2023/01/03 01:24:09;;;;;;;7.40;2.50;;;5.90;99.90;;;;;;5032478;28;20262;-78
2023/01/03 01:26:35;;;;;;;8.13;2.60;;;5.90;99.90;;;;;;5021816;28;20183;-78
2023/01/03 01:29:01;;;;;;;10.43;2.85;;;5.90;99.90;;;;;;5035097;28;20175;-81
2023/01/03 01:31:26;;;;;;;13.07;2.70;;;6.00;99.90;;;;;;5030268;28;20330;-78
2023/01/03 01:33:54;;;;;;;7.07;2.80;;;6.00;99.90;;;;;;5028521;28;20231;-78
2023/01/03 01:36:23;;;;;;;7.05;2.38;;;6.00;99.90;;;;;;5043377;28;20185;-79
2023/01/03 01:38:57;;;;;;;13.65;2.80;;;6.00;99.90;;;;;;5026213;28;20180;-79
2023/01/03 01:44:53;;;;;;;10.32;3.13;;;6.00;99.90;;;;;;5029275;28;20620;-78
2023/01/03 01:47:39;;;;;;;6.38;2.67;;;6.00;99.90;;;;;;4998005;28;20193;-78
2023/01/03 01:50:11;;;;;;;17.00;2.72;;;6.00;99.90;;;;;;5034341;28;21564;-78
2023/01/03 01:52:41;;;;;;;6.03;2.85;;;5.90;99.90;;;;;;5065969;28;20176;-78
2023/01/03 01:55:12;;;;;;;13.48;3.13;;;6.00;99.90;;;;;;5032992;28;20168;-77
2023/01/03 01:57:40;;;;;;;13.65;2.80;;;6.00;99.90;;;;;;5032294;28;20180;-78
2023/01/03 02:00:08;;;;;;;13.57;2.70;;;6.00;99.90;;;;;;5033958;28;20219;-78
2023/01/03 02:02:43;;;;;;;13.27;2.85;;;6.00;99.90;;;;;;5030386;28;20192;-77
2023/01/03 02:05:10;;;;;;;10.23;2.92;;;6.00;99.90;;;;;;5028639;28;20302;-78
2023/01/03 02:07:37;;;;;;;7.65;2.67;;;6.00;99.90;;;;;;5031850;28;20226;-78
2023/01/03 02:10:03;;;;;;;10.90;3.13;;;5.90;99.90;;;;;;5048601;28;20739;-78
2023/01/03 02:13:05;;;;;;;14.60;3.05;;;6.00;99.90;;;;;;5063254;28;20175;-77
2023/01/03 02:16:02;;;;;;;9.98;2.63;;;6.00;99.90;;;;;;5059009;28;20175;-78
2023/01/03 02:18:38;;;;;;;7.95;3.17;;;6.00;99.90;;;;;;5061116;28;20230;-78
2023/01/03 02:21:23;;;;;;;10.90;3.75;;;5.90;99.90;;;;;;5049513;28;20191;-79
2023/01/03 02:24:22;;;;;;;12.68;3.10;;;5.90;99.90;;;;;;5045771;28;20229;-78
2023/01/03 02:27:25;;;;;;;10.93;3.63;;;5.90;99.90;;;;;;5031756;28;20241;-78
2023/01/03 02:30:11;;;;;;;7.10;3.60;;;5.90;99.90;;;;;;5029298;28;20199;-78
2023/01/03 02:33:03;;;;;;;9.60;3.55;;;5.90;99.90;;;;;;5065593;28;20531;-80
2023/01/03 02:36:06;;;;;;;10.23;4.30;;;5.90;99.90;;;;;;5025242;28;20172;-77
2023/01/03 02:38:41;;;;;;;11.70;3.72;;;5.90;99.90;;;;;;5048999;28;20194;-78
2023/01/03 02:41:31;;;;;;;11.50;3.53;;;5.90;99.90;;;;;;5031621;28;20180;-77
2023/01/03 02:44:24;;;;;;;10.85;3.78;;;5.80;99.90;;;;;;5032193;28;20180;-77
2023/01/03 02:47:08;;;;;;;9.38;4.18;;;5.80;99.90;;;;;;5051446;28;20206;-77
2023/01/03 02:49:35;;;;;;;12.80;3.80;;;5.80;99.90;;;;;;5064849;28;20548;-77
2023/01/03 02:52:05;;;;;;;10.45;3.60;;;5.80;99.90;;;;;;5034593;28;20647;-77
2023/01/03 02:54:40;;;;;;;10.55;3.83;;;5.80;99.90;;;;;;5031767;28;20172;-77
2023/01/03 02:57:13;;;;;;;11.05;4.07;;;5.70;99.90;;;;;;5033903;28;20168;-77
2023/01/03 02:59:46;;;;;;;11.38;3.70;;;5.70;99.90;;;;;;5025041;28;20245;-78
2023/01/03 03:02:13;;;;;;;11.90;3.88;;;5.70;99.90;;;;;;5033140;28;20188;-81
2023/01/03 03:04:41;;;;;;;9.25;3.60;;;5.60;99.90;;;;;;5032059;28;20183;-83
2023/01/03 03:07:19;;;;;;;11.23;3.70;;;5.60;99.90;;;;;;5028050;28;20224;-77
2023/01/03 03:15:22;;;;;;;12.38;3.92;;;5.50;99.90;;;;;;5040135;28;20207;-77
2023/01/03 03:17:53;;;;;;;8.60;3.70;;;5.40;99.90;;;;;;5032785;28;20646;-77
2023/01/03 03:26:03;;;;;;;6.05;3.67;;;5.30;99.90;;;;;;5039745;28;20172;-78
2023/01/03 03:28:35;;;;;;;10.43;3.65;;;5.20;99.90;;;;;;5032380;28;20184;-77
2023/01/03 03:31:02;;;;;;;9.60;3.83;;;5.20;99.90;;;;;;5064570;28;20184;-78
2023/01/03 03:33:33;;;;;;;11.52;4.30;;;5.20;99.90;;;;;;5030322;28;20180;-77
2023/01/03 03:36:05;;;;;;;10.73;3.72;;;5.20;99.90;;;;;;5031895;28;20572;-77
2023/01/03 03:38:37;;;;;;;9.88;4.03;;;5.10;99.90;;;;;;5031233;28;20240;-78
2023/01/03 03:47:39;;;;;;;9.43;3.80;;;5.10;99.90;;;;;;5011246;28;20550;-79
2023/01/03 03:50:18;;;;;;;18.52;4.07;;;5.10;99.90;;;;;;5027443;28;20643;-78
2023/01/03 03:52:48;;;;;;;12.57;4.10;;;5.00;99.90;;;;;;5022400;28;20179;-80
2023/01/03 03:55:24;;;;;;;13.65;4.00;;;5.00;99.90;;;;;;5025634;28;20183;-78
2023/01/03 03:57:55;;;;;;;10.70;3.95;;;4.90;99.90;;;;;;5033170;28;20585;-78
2023/01/03 04:00:25;;;;;;;11.32;4.05;;;4.90;99.90;;;;;;5046809;28;20663;-79
2023/01/03 04:02:52;;;;;;;12.23;4.07;;;4.90;99.90;;;;;;5047224;28;20509;-78
2023/01/03 04:05:21;;;;;;;14.13;3.88;;;4.80;99.90;;;;;;5038746;28;20191;-78
2023/01/03 04:07:48;;;;;;;8.38;3.58;;;4.80;99.90;;;;;;5029683;28;20223;-79
2023/01/03 04:10:19;;;;;;;11.10;4.55;;;4.80;99.90;;;;;;5031861;28;20175;-78
2023/01/03 04:12:46;;;;;;;6.72;3.72;;;4.70;99.90;;;;;;5047566;28;20176;-78
2023/01/03 04:15:13;;;;;;;7.78;3.70;;;4.70;99.90;;;;;;5030308;28;20241;-79
2023/01/03 04:17:38;;;;;;;9.55;3.78;;;4.60;99.90;;;;;;5032886;28;20179;-78
2023/01/03 04:20:05;;;;;;;11.10;4.00;;;4.60;99.90;;;;;;5046732;28;20218;-77
2023/01/03 04:22:30;;;;;;;7.85;4.20;;;4.60;99.90;;;;;;5047978;28;20238;-78
2023/01/03 04:24:56;;;;;;;11.85;4.28;;;4.60;99.90;;;;;;5029492;28;20176;-78
2023/01/03 04:27:22;;;;;;;9.25;4.20;;;4.60;99.90;;;;;;5024002;28;20192;-78
2023/01/03 04:29:47;;;;;;;10.77;4.05;;;4.60;99.90;;;;;;5062771;28;20192;-79
2023/01/03 04:32:13;;;;;;;14.35;5.13;;;4.50;99.90;;;;;;5057168;28;20211;-78
2023/01/03 04:34:39;;;;;;;7.75;4.90;;;4.50;99.90;;;;;;5016994;28;20176;-78
2023/01/03 04:37:05;;;;;;;13.45;5.28;;;4.50;99.90;;;;;;5024143;28;20203;-78
2023/01/03 04:39:31;;;;;;;10.52;6.30;;;4.50;99.90;;;;;;5059336;28;20269;-78
2023/01/03 04:41:56;;;;;;;12.20;6.20;;;4.50;99.90;;;;;;5035706;28;20172;-80
2023/01/03 04:44:22;;;;;;;13.90;6.28;;;4.50;99.90;;;;;;5033758;28;20841;-78
2023/01/03 04:46:48;;;;;;;19.13;6.53;;;4.60;99.90;;;;;;5036252;28;20180;-78
2023/01/03 04:49:14;;;;;;;19.08;7.43;;;4.60;99.90;;;;;;5035502;28;20585;-78
2023/01/03 04:51:39;;;;;;;16.48;7.55;;;4.60;99.90;;;;;;5068328;28;20183;-77
2023/01/03 04:54:06;;;;;;;19.77;8.18;;;4.60;99.90;;;;;;5034902;28;20187;-78
2023/01/03 04:56:35;;;;;;;18.30;7.85;;;4.60;99.90;;;;;;5030244;28;20241;-79
2023/01/03 04:59:00;;;;;;;13.82;7.95;;;4.60;99.90;;;;;;5033574;28;20318;-78
2023/01/03 05:01:27;;;;;;;18.00;8.50;;;4.70;99.90;;;;;;5067659;28;20278;-78
2023/01/03 05:03:59;;;;;;;17.23;8.50;;;4.70;99.90;;;;;;5049636;28;20184;-79
2023/01/03 05:06:26;;;;;;;19.13;9.45;;;4.70;99.90;;;;;;5033918;28;20212;-78
2023/01/03 05:08:52;;;;;;;19.50;9.32;;;4.70;99.90;;;;;;5049329;28;20398;-78
2023/01/03 05:11:18;;;;;;;17.33;10.32;;;4.70;99.90;;;;;;5066711;28;20624;-78
2023/01/03 05:13:43;;;;;;;24.25;10.82;;;4.70;99.90;;;;;;5048322;28;20192;-78
2023/01/03 05:16:12;;;;;;;19.35;10.65;;;4.80;99.90;;;;;;5016310;28;20234;-78
2023/01/03 05:18:39;;;;;;;19.35;10.52;;;4.80;99.90;;;;;;5033240;28;20558;-78
2023/01/03 05:26:48;;;;;;;23.45;10.55;;;4.80;99.90;;;;;;5033362;28;20183;-77
2023/01/03 05:29:16;;;;;;;22.17;11.57;;;4.80;99.90;;;;;;5035216;28;20179;-78
2023/01/03 05:31:42;;;;;;;21.65;10.68;;;4.90;99.90;;;;;;5035451;28;20173;-77
2023/01/03 05:34:08;;;;;;;23.95;12.02;;;4.90;99.90;;;;;;5031437;28;20184;-78
2023/01/03 05:36:34;;;;;;;22.73;11.13;;;4.90;99.90;;;;;;5037328;28;20687;-80
2023/01/03 05:38:59;;;;;;;27.95;11.98;;;4.90;99.90;;;;;;5055534;28;20188;-81
2023/01/03 05:44:09;;;;;;;23.40;12.05;;;4.90;99.90;;;;;;5020491;28;20711;-78
2023/01/03 05:46:35;;;;;;;21.45;11.82;;;4.90;99.90;;;;;;5060522;28;20188;-79
2023/01/03 05:49:01;;;;;;;28.10;12.55;;;4.90;99.90;;;;;;5026344;28;20188;-79
2023/01/03 05:51:27;;;;;;;21.65;12.50;;;4.90;99.90;;;;;;5050335;28;20644;-78
2023/01/03 05:53:52;;;;;;;19.20;11.85;;;4.90;99.90;;;;;;5034650;28;20180;-78
2023/01/03 05:56:18;;;;;;;25.63;11.73;;;4.90;99.90;;;;;;5022015;28;20199;-78
2023/01/03 05:58:44;;;;;;;24.27;12.27;;;4.90;99.90;;;;;;5034787;28;20184;-82
2023/01/03 06:01:12;;;;;;;24.65;11.63;;;4.90;99.90;;;;;;5028958;28;20216;-78
2023/01/03 06:03:38;;;;;;;24.77;12.73;;;4.90;99.90;;;;;;5030241;28;20230;-78
2023/01/03 06:06:05;;;;;;;26.90;12.57;;;4.90;99.90;;;;;;5035354;28;20171;-78
2023/01/03 06:08:31;;;;;;;27.00;12.20;;;4.90;99.90;;;;;;5030921;28;20234;-77
2023/01/03 06:10:57;;;;;;;21.35;12.52;;;4.90;99.90;;;;;;5065678;28;20187;-77
2023/01/03 06:13:23;;;;;;;24.55;13.30;;;4.90;99.90;;;;;;5045646;28;20184;-79
2023/01/03 06:18:34;;;;;;;25.40;13.02;;;4.90;99.90;;;;;;5025835;28;20218;-80
2023/01/03 06:21:04;;;;;;;25.10;12.80;;;4.90;99.90;;;;;;5028803;28;20212;-78
2023/01/03 06:23:30;;;;;;;28.50;13.52;;;4.90;99.90;;;;;;5033772;28;20271;-78
2023/01/03 06:25:55;;;;;;;26.42;13.85;;;4.90;99.90;;;;;;5029776;28;20272;-81
2023/01/03 06:28:21;;;;;;;24.65;14.32;;;4.90;99.90;;;;;;5030839;28;20278;-77
2023/01/03 06:30:47;;;;;;;26.83;14.98;;;4.90;99.90;;;;;;5049221;28;20192;-77
2023/01/03 06:33:13;;;;;;;30.45;13.68;;;4.80;99.90;;;;;;5049757;28;20195;-76
2023/01/03 06:35:38;;;;;;;33.85;15.55;;;4.80;99.90;;;;;;5030157;28;20270;-76
2023/01/03 06:38:04;;;;;;;30.00;15.48;;;4.80;99.90;;;;;;5041074;28;20179;-76
2023/01/03 06:40:30;;;;;;;31.25;16.08;;;4.80;99.90;;;;;;5028783;28;20676;-77
2023/01/03 06:42:56;;;;;;;31.27;16.60;;;4.80;99.90;;;;;;5019547;28;20223;-76
2023/01/03 06:53:41;;;;;;;31.95;17.67;;;4.70;99.90;;;;;;5020927;28;20212;-76
2023/01/03 06:56:08;;;;;;;27.77;16.90;;;4.70;99.90;;;;;;5047305;28;20553;-76
2023/01/03 06:58:34;;;;;;;33.40;17.90;;;4.70;99.90;;;;;;5047662;28;20183;-76
2023/01/03 07:01:02;;;;;;;39.92;17.63;;;4.70;99.90;;;;;;5026467;28;20222;-76
2023/01/03 07:03:32;;;;;;;35.22;18.23;;;4.60;99.90;;;;;;5024754;28;20229;-76
2023/01/03 07:05:58;;;;;;;37.17;19.02;;;4.60;99.90;;;;;;5030243;28;20976;-75
2023/01/03 07:08:24;;;;;;;29.80;17.73;;;4.60;99.90;;;;;;5031283;28;20302;-76
2023/01/03 07:10:49;;;;;;;34.08;18.63;;;4.60;99.90;;;;;;5024057;28;20196;-80
2023/01/03 07:15:59;;;;;;;33.88;18.75;;;4.50;99.90;;;;;;5032240;28;20404;-77
2023/01/03 07:18:25;;;;;;;36.28;19.15;;;4.50;99.90;;;;;;5034388;28;20644;-76
2023/01/03 07:20:51;;;;;;;37.58;19.90;;;4.50;99.90;;;;;;5035485;28;20207;-78
2023/01/03 07:23:17;;;;;;;34.15;18.70;;;4.50;99.90;;;;;;5033739;28;20188;-81
2023/01/03 07:25:43;;;;;;;37.17;20.30;;;4.50;99.90;;;;;;5021695;28;20215;-78
2023/01/03 07:28:10;;;;;;;35.95;20.05;;;4.50;99.90;;;;;;5032890;28;20218;-77
2023/01/03 07:30:38;;;;;;;36.88;19.98;;;4.40;99.90;;;;;;5031996;28;20187;-76
2023/01/03 07:33:04;;;;;;;36.45;18.58;;;4.40;99.90;;;;;;5024757;28;20187;-76
2023/01/03 07:35:34;;;;;;;39.83;20.67;;;4.50;99.90;;;;;;5025282;28;20176;-76
2023/01/03 07:38:00;;;;;;;35.58;20.05;;;4.40;99.90;;;;;;5029071;28;20263;-80
2023/01/03 07:40:27;;;;;;;35.70;19.67;;;4.40;99.90;;;;;;5030505;28;20270;-81
2023/01/03 07:45:41;;;;;;;34.08;19.60;;;4.40;99.90;;;;;;5025117;28;20213;-77
2023/01/03 07:48:07;;;;;;;36.08;19.35;;;4.40;99.90;;;;;;5028906;28;20180;-76
2023/01/03 07:50:33;;;;;;;37.55;18.98;;;4.30;99.90;;;;;;5046232;28;20203;-77
2023/01/03 07:52:59;;;;;;;35.92;18.58;;;4.30;99.90;;;;;;5032899;28;20176;-82
2023/01/03 07:55:24;;;;;;;32.40;18.50;;;4.30;99.90;;;;;;5027782;28;20188;-76
2023/01/03 07:57:52;;;;;;;31.30;17.92;;;4.30;99.90;;;;;;5031792;28;20184;-75
2023/01/03 08:00:17;;;;;;;31.42;17.13;;;4.30;99.90;;;;;;5037223;28;20215;-78
2023/01/03 08:02:44;;;;;;;37.88;18.38;;;4.30;99.90;;;;;;5029016;28;20179;-77
2023/01/03 08:05:10;;;;;;;36.45;17.70;;;4.30;99.90;;;;;;5035194;28;20189;-77
2023/01/03 08:07:35;;;;;;;30.58;17.65;;;4.30;99.90;;;;;;5052639;28;20218;-77
2023/01/03 08:15:31;;;;;;;28.50;16.95;;;4.40;99.90;;;;;;5031626;28;20184;-77
2023/01/03 08:17:57;;;;;;;30.50;15.27;;;4.30;99.90;;;;;;5032667;28;20191;-77
2023/01/03 08:20:22;;;;;;;32.17;16.48;;;4.40;99.90;;;;;;5031095;28;20212;-76
2023/01/03 08:22:48;;;;;;;30.30;15.98;;;4.40;99.90;;;;;;5031153;28;20267;-78
2023/01/03 08:25:14;;;;;;;31.00;17.20;;;4.40;99.90;;;;;;5039159;28;20291;-77
2023/01/03 08:27:39;;;;;;;26.48;15.98;;;4.50;99.90;;;;;;5023315;28;20271;-75
2023/01/03 08:30:06;;;;;;;29.58;15.13;;;4.50;99.90;;;;;;5058419;28;20535;-78
2023/01/03 08:32:33;;;;;;;30.15;16.25;;;4.50;99.90;;;;;;5029335;28;20258;-78
2023/01/03 08:34:59;;;;;;;30.13;15.30;;;4.50;99.90;;;;;;5029271;28;20624;-77
2023/01/03 08:37:27;;;;;;;33.00;16.20;;;4.50;99.90;;;;;;5036658;28;20184;-78
2023/01/03 08:39:58;;;;;;;29.35;16.17;;;4.50;99.90;;;;;;5029259;28;20243;-85
2023/01/03 08:42:25;;;;;;;29.10;14.63;;;4.50;99.90;;;;;;5042003;28;20199;-78
2023/01/03 08:44:57;;;;;;;29.98;16.27;;;4.60;99.90;;;;;;5041485;28;20674;-86
2023/01/03 08:47:23;;;;;;;28.80;16.33;;;4.60;99.90;;;;;;5011475;28;20184;-78
2023/01/03 08:49:49;;;;;;;29.42;16.15;;;4.60;99.90;;;;;;5033924;28;20222;-77
2023/01/03 08:52:15;;;;;;;26.88;16.98;;;4.70;99.90;;;;;;5032239;28;20521;-77
2023/01/03 08:54:42;;;;;;;31.10;17.42;;;4.70;99.90;;;;;;5030397;28;20191;-78
2023/01/03 08:57:08;;;;;;;26.45;15.82;;;4.70;99.90;;;;;;5047112;28;20175;-78
2023/01/03 08:59:34;;;;;;;28.33;15.93;;;4.70;99.90;;;;;;5025151;28;20654;-79
2023/01/03 09:02:00;;;;;;;26.95;16.00;;;4.80;99.90;;;;;;5031344;28;20176;-77
2023/01/03 09:04:26;;;;;;;31.40;16.98;;;5.00;99.90;;;;;;5063723;28;20699;-77
2023/01/03 09:06:52;;;;;;;34.80;17.60;;;5.50;99.90;;;;;;5065886;28;20175;-80
2023/01/03 09:09:18;;;;;;;29.73;17.13;;;6.10;99.90;;;;;;5017339;28;20347;-77
2023/01/03 09:11:44;;;;;;;30.05;17.65;;;6.70;99.90;;;;;;5046816;28;20188;-76
2023/01/03 09:14:09;;;;;;;26.95;16.90;;;7.10;99.90;;;;;;5028105;28;20180;-77
2023/01/03 09:16:35;;;;;;;28.02;17.20;;;7.50;99.90;;;;;;5034961;28;20188;-77
2023/01/03 09:19:01;;;;;;;24.70;16.25;;;7.70;99.90;;;;;;5030741;28;20200;-81
2023/01/03 09:21:28;;;;;;;26.60;16.90;;;8.00;99.90;;;;;;5019971;28;20188;-78
2023/01/03 09:23:55;;;;;;;30.73;16.67;;;8.30;99.90;;;;;;5026451;28;20180;-78
2023/01/03 09:26:21;;;;;;;29.40;17.13;;;8.50;99.90;;;;;;5073718;28;20229;-77
2023/01/03 09:28:47;;;;;;;26.17;17.17;;;8.70;99.90;;;;;;5047105;28;20204;-77
2023/01/03 09:31:12;;;;;;;27.95;17.98;;;8.90;99.90;;;;;;5032390;28;20694;-78
2023/01/03 09:33:38;;;;;;;27.48;16.98;;;9.10;99.90;;;;;;5031210;28;20184;-84
2023/01/03 09:36:04;;;;;;;27.90;16.77;;;9.10;99.90;;;;;;5059430;28;20184;-77
2023/01/03 09:38:30;;;;;;;27.58;17.45;;;9.00;99.90;;;;;;5047230;28;20180;-78
2023/01/03 09:41:05;;;;;;;25.60;17.50;;;8.80;99.90;;;;;;5062639;28;20254;-78
2023/01/03 09:43:40;;;;;;;22.92;16.67;;;8.60;99.90;;;;;;5030919;28;20219;-78
2023/01/03 09:46:14;;;;;;;28.08;16.80;;;8.30;99.90;;;;;;5021978;28;20176;-79
2023/01/03 09:48:40;;;;;;;22.63;15.68;;;7.90;99.90;;;;;;5033074;28;20183;-78
2023/01/03 10:03:42;;;;;;;23.80;15.40;;;7.40;99.90;;;;;;5026353;28;20191;-80
2023/01/03 10:05:34;;;;;;;20.48;14.25;;;5.50;99.90;;;;;;5023216;28;20175;-81
2023/01/03 10:08:25;;;;;;;24.70;14.48;;;5.20;99.90;;;;;;5015535;28;20359;-77
2023/01/03 10:11:08;;;;;;;33.22;14.95;;;5.00;99.90;;;;;;5044764;28;20188;-78
2023/01/03 10:13:46;;;;;;;27.10;15.35;;;4.80;99.90;;;;;;5035441;28;20207;-77
2023/01/03 10:16:27;;;;;;;23.42;15.30;;;4.60;99.90;;;;;;5046483;28;20179;-79
2023/01/03 10:19:03;;;;;;;25.85;15.30;;;4.40;99.90;;;;;;5037022;28;20180;-82
2023/01/03 10:21:50;;;;;;;30.63;16.85;;;4.30;99.90;;;;;;5029102;28;20188;-78
2023/01/03 10:24:27;;;;;;;29.27;16.25;;;4.20;99.90;;;;;;5032980;28;20176;-76
2023/01/03 10:27:07;;;;;;;26.33;15.60;;;4.10;99.90;;;;;;5035972;28;20179;-81
2023/01/03 10:29:33;;;;;;;29.17;15.20;;;4.00;99.90;;;;;;5026851;28;20186;-78
2023/01/03 10:31:59;;;;;;;24.38;14.85;;;4.00;99.90;;;;;;5019674;28;20216;-80
2023/01/03 10:34:25;;;;;;;32.53;16.13;;;3.90;99.90;;;;;;5018676;28;20238;-77
2023/01/03 10:36:50;;;;;;;29.98;18.33;;;3.90;99.90;;;;;;5033632;28;20176;-76
2023/01/03 10:39:30;;;;;;;36.78;19.58;;;3.80;99.90;;;;;;5031242;28;20184;-76
2023/01/03 10:41:59;;;;;;;56.03;19.17;;;3.90;99.90;;;;;;5022443;28;20207;-82
2023/01/03 10:44:28;;;;;;;54.17;19.88;;;3.90;99.90;;;;;;5053467;28;20199;-77
2023/01/03 10:46:57;;;;;;;49.70;21.67;;;3.90;99.90;;;;;;5033491;28;20180;-79
2023/01/03 10:49:26;;;;;;;59.38;21.23;;;3.90;99.90;;;;;;5033074;28;20199;-80
2023/01/03 10:52:13;;;;;;;47.75;22.27;;;3.90;99.90;;;;;;5031753;28;20184;-78
2023/01/03 10:54:42;;;;;;;45.70;22.55;;;3.90;99.90;;;;;;5028939;28;20183;-78
2023/01/03 10:57:47;;;;;;;59.65;22.88;;;4.00;99.90;;;;;;5034874;28;20188;-77
2023/01/03 11:00:31;;;;;;;55.10;22.02;;;4.00;99.90;;;;;;5032561;28;20675;-77
2023/01/03 11:03:19;;;;;;;45.75;22.23;;;4.10;99.90;;;;;;5033316;28;20298;-77
2023/01/03 11:06:04;;;;;;;44.67;22.75;;;4.10;99.90;;;;;;5033108;28;20195;-78
2023/01/03 11:08:45;;;;;;;53.63;24.52;;;4.20;99.90;;;;;;5017393;28;20356;-78
2023/01/03 11:11:38;;;;;;;51.30;24.38;;;4.20;99.90;;;;;;5031450;28;20202;-76
2023/01/03 11:14:15;;;;;;;49.08;25.10;;;4.30;99.90;;;;;;5013916;28;20169;-77
2023/01/03 11:16:41;;;;;;;51.95;26.50;;;4.30;99.90;;;;;;5025610;28;20183;-84
2023/01/03 11:19:13;;;;;;;49.17;25.48;;;4.40;99.90;;;;;;5038739;28;20651;-77
2023/01/03 11:21:53;;;;;;;62.17;29.38;;;4.50;99.90;;;;;;5025068;28;20263;-77
2023/01/03 11:24:49;;;;;;;59.55;29.65;;;4.60;99.90;;;;;;5031466;28;20175;-77
2023/01/03 11:27:39;;;;;;;59.70;29.63;;;4.70;99.90;;;;;;5031001;28;20203;-77
2023/01/03 11:30:27;;;;;;;60.58;30.80;;;4.80;99.90;;;;;;5064617;28;20176;-77
2023/01/03 11:33:13;;;;;;;61.10;30.67;;;4.90;99.90;;;;;;5039850;28;20172;-77
2023/01/03 11:35:56;;;;;;;65.40;32.08;;;5.10;99.90;;;;;;5024862;28;20704;-76
2023/01/03 11:38:50;;;;;;;65.38;31.20;;;5.20;99.90;;;;;;5020937;28;20195;-76
2023/01/03 11:41:33;;;;;;;63.55;30.95;;;5.40;99.90;;;;;;5029995;28;20307;-77
2023/01/03 11:44:05;;;;;;;69.32;32.65;;;5.50;99.90;;;;;;5063593;28;20290;-82
2023/01/03 11:46:43;;;;;;;70.05;32.42;;;5.50;99.90;;;;;;5032584;28;20678;-77
2023/01/03 11:49:40;;;;;;;70.65;32.95;;;5.60;99.90;;;;;;5021616;28;20199;-80
2023/01/03 11:52:29;;;;;;;67.32;32.17;;;5.60;99.90;;;;;;5013317;28;20230;-75
2023/01/03 11:55:33;;;;;;;69.07;32.72;;;5.70;99.90;;;;;;5032904;28;20242;-76
2023/01/03 11:58:20;;;;;;;67.97;32.58;;;5.70;99.90;;;;;;5017223;28;20187;-81
2023/01/03 12:01:10;;;;;;;67.25;31.92;;;5.80;99.90;;;;;;5022215;28;20207;-77
2023/01/03 12:04:01;;;;;;;70.47;33.47;;;5.80;99.90;;;;;;5015272;28;20181;-77
2023/01/03 12:06:37;;;;;;;74.57;34.78;;;5.80;99.90;;;;;;5049543;28;20639;-76
2023/01/03 12:09:25;;;;;;;70.38;33.03;;;5.90;99.90;;;;;;5033855;28;20231;-77
2023/01/03 12:12:29;;;;;;;66.60;32.08;;;5.90;99.90;;;;;;5021003;28;20168;-81
2023/01/03 12:15:19;;;;;;;66.30;33.65;;;6.00;99.90;;;;;;5008738;28;20231;-75
2023/01/03 12:18:09;;;;;;;70.13;33.90;;;6.00;99.90;;;;;;5023840;28;20255;-78
2023/01/03 12:20:39;;;;;;;71.97;35.72;;;6.00;99.90;;;;;;5031213;28;20215;-79
2023/01/03 12:23:29;;;;;;;71.93;33.78;;;6.10;99.90;;;;;;5019259;28;20191;-79
2023/01/03 12:25:59;;;;;;;76.28;34.15;;;6.10;99.90;;;;;;5039584;28;20203;-76
2023/01/03 12:28:40;;;;;;;69.10;34.63;;;6.10;99.90;;;;;;5013423;28;20299;-81
2023/01/03 12:31:42;;;;;;;73.53;34.65;;;6.20;99.90;;;;;;5031394;28;20222;-76
2023/01/03 12:34:11;;;;;;;71.30;31.38;;;6.20;99.90;;;;;;5049647;28;20175;-77
2023/01/03 12:36:45;;;;;;;73.05;35.30;;;6.20;99.90;;;;;;5015855;28;20176;-78
2023/01/03 12:39:45;;;;;;;70.22;35.17;;;6.20;99.90;;;;;;5022936;28;20184;-78
2023/01/03 12:42:32;;;;;;;76.55;34.83;;;6.30;99.90;;;;;;5031313;28;20172;-78
2023/01/03 12:45:06;;;;;;;65.13;33.53;;;6.30;99.90;;;;;;5022877;28;20176;-78
2023/01/03 12:47:48;;;;;;;71.53;33.08;;;6.30;99.90;;;;;;5022369;28;20199;-79
2023/01/03 12:50:21;;;;;;;62.45;31.90;;;6.40;99.90;;;;;;5022210;28;20179;-78
2023/01/03 12:52:57;;;;;;;67.88;31.95;;;6.40;99.90;;;;;;5031280;28;20214;-79
2023/01/03 12:55:28;;;;;;;71.22;32.53;;;6.40;99.90;;;;;;5031173;28;20186;-76
2023/01/03 12:58:15;;;;;;;61.95;31.73;;;6.50;99.90;;;;;;5026908;28;20191;-76
2023/01/03 13:00:54;;;;;;;60.13;31.52;;;6.50;99.90;;;;;;5037801;28;20687;-77
2023/01/03 13:03:45;;;;;;;70.78;31.67;;;6.50;99.90;;;;;;5018465;28;20215;-77
2023/01/03 13:06:34;;;;;;;57.15;28.02;;;6.50;99.90;;;;;;5035553;28;20211;-76
2023/01/03 13:09:04;;;;;;;50.17;25.85;;;6.60;99.90;;;;;;5029390;28;20615;-83
2023/01/03 13:11:40;;;;;;;58.17;28.58;;;6.60;99.90;;;;;;5031500;28;20218;-84
2023/01/03 13:14:24;;;;;;;58.17;27.73;;;6.60;99.90;;;;;;5017816;28;20183;-77
2023/01/03 13:16:52;;;;;;;55.65;27.98;;;6.70;99.90;;;;;;5016092;28;20168;-76
2023/01/03 13:19:20;;;;;;;50.42;27.17;;;6.70;99.90;;;;;;5017849;28;20215;-76
2023/01/03 13:21:52;;;;;;;50.42;26.98;;;6.70;99.90;;;;;;5034871;28;20253;-80
2023/01/03 13:24:50;;;;;;;50.10;26.75;;;6.70;99.90;;;;;;5038683;28;20307;-77
2023/01/03 13:27:19;;;;;;;47.25;25.80;;;6.80;99.90;;;;;;5051131;28;20220;-77
2023/01/03 13:29:48;;;;;;;47.75;25.17;;;6.80;99.90;;;;;;5034650;28;20198;-77
2023/01/03 13:32:22;;;;;;;48.45;25.20;;;6.80;99.90;;;;;;5051362;28;20176;-78
2023/01/03 13:35:14;;;;;;;44.70;22.15;;;6.90;99.90;;;;;;5037847;28;20186;-77
2023/01/03 13:37:45;;;;;;;46.83;24.25;;;6.90;99.90;;;;;;5049759;28;20620;-77
2023/01/03 13:40:27;;;;;;;40.40;23.38;;;6.90;99.90;;;;;;5034582;28;20207;-77
2023/01/03 13:43:19;;;;;;;44.75;23.40;;;7.00;99.90;;;;;;5032337;28;20180;-81
2023/01/03 13:45:51;;;;;;;42.28;22.85;;;7.00;99.90;;;;;;5018191;28;20191;-76
2023/01/03 13:48:28;;;;;;;38.85;22.05;;;7.00;99.90;;;;;;5019179;28;20322;-82
2023/01/03 13:51:15;;;;;;;42.92;22.50;;;7.00;99.90;;;;;;5026204;28;20179;-82
2023/01/03 13:54:18;;;;;;;40.50;21.17;;;7.00;99.90;;;;;;5045110;28;20175;-79
2023/01/03 13:56:44;;;;;;;37.05;21.17;;;7.10;99.90;;;;;;5017155;28;20644;-76
2023/01/03 13:59:27;;;;;;;43.78;22.88;;;7.10;99.90;;;;;;5034155;28;20218;-79
2023/01/03 14:02:08;;;;;;;38.40;21.92;;;7.10;99.90;;;;;;5034541;28;20547;-77
2023/01/03 14:04:46;;;;;;;46.80;23.67;;;7.10;99.90;;;;;;5041970;28;20552;-81
2023/01/03 14:07:17;;;;;;;43.10;21.67;;;7.20;99.90;;;;;;5038962;28;20222;-77
2023/01/03 14:09:50;;;;;;;42.38;22.77;;;7.20;99.90;;;;;;5028535;28;20197;-77
2023/01/03 14:12:52;;;;;;;46.47;22.25;;;7.20;99.90;;;;;;5030050;28;20196;-76